Time;durP1;ratioP1;P1;durP2;ratioP2;P2;SDS_P1;SDS_P2;PMS_P1;PMS_P2;Temp;Humidity;BMP_temperature;BMP_pressure;BME280_temperature;BME280_humidity;BME280_pressure;Samples;Min_cycle;Max_cycle;Signal;HPM_P1;HPM_P2
2022/09/16 00:03:03;;;;;;;12.18;3.13;;;;;;;12.46;91.75;98220.50;8410511;28;20044;-80
2022/09/16 00:07:04;;;;;;;8.88;3.47;;;;;;;12.42;91.77;98227.75;8399787;28;20067;-78
2022/09/16 00:11:05;;;;;;;11.70;3.35;;;;;;;12.41;91.77;98233.50;8394177;28;20132;-79
2022/09/16 00:15:07;;;;;;;13.40;3.22;;;;;;;12.35;91.65;98221.31;8412626;28;20086;-79
2022/09/16 00:19:08;;;;;;;9.15;2.70;;;;;;;12.33;91.83;98234.41;8400670;28;20388;-81
2022/09/16 00:23:09;;;;;;;8.20;2.83;;;;;;;12.31;92.04;98242.09;8400046;28;20405;-81
2022/09/16 00:27:10;;;;;;;5.15;2.30;;;;;;;12.28;91.74;98238.91;8397822;28;20066;-80
2022/09/16 00:31:11;;;;;;;8.50;2.40;;;;;;;12.33;91.36;98240.59;8407619;28;20071;-79
2022/09/16 00:35:12;;;;;;;11.48;2.88;;;;;;;12.35;91.37;98242.97;8401376;28;20135;-80
2022/09/16 00:39:13;;;;;;;5.72;2.45;;;;;;;12.36;91.24;98244.56;8397914;28;20048;-79
2022/09/16 00:43:17;;;;;;;9.50;2.33;;;;;;;12.39;90.98;98249.28;8421022;28;20049;-80
2022/09/16 00:47:23;;;;;;;6.63;2.13;;;;;;;12.39;90.93;98250.06;8401057;28;20459;-79
2022/09/16 00:51:24;;;;;;;10.52;3.03;;;;;;;12.41;90.94;98238.91;8367757;28;20061;-80
2022/09/16 00:55:31;;;;;;;5.57;2.15;;;;;;;12.43;90.76;98236.63;8374286;28;20487;-79
2022/09/16 00:59:35;;;;;;;4.55;2.17;;;;;;;12.42;90.80;98237.78;8381198;28;20103;-79
2022/09/16 01:03:51;;;;;;;7.35;2.47;;;;;;;12.43;90.64;98239.34;8369170;28;20048;-78
2022/09/16 01:07:53;;;;;;;3.85;1.95;;;;;;;12.42;90.65;98248.63;8375044;28;20049;-80
2022/09/16 01:11:54;;;;;;;4.85;2.65;;;;;;;12.40;90.74;98250.88;8384473;28;20179;-82
2022/09/16 01:16:05;;;;;;;5.82;2.20;;;;;;;12.37;91.03;98246.16;8372187;28;20542;-80
2022/09/16 01:20:24;;;;;;;7.28;2.42;;;;;;;12.38;91.01;98247.69;8376634;28;20057;-79
2022/09/16 01:24:46;;;;;;;5.85;2.15;;;;;;;12.33;91.38;98250.63;8354102;28;20494;-81
2022/09/16 01:29:20;;;;;;;9.13;2.55;;;;;;;12.30;91.65;98254.03;8386620;28;20056;-82
2022/09/16 01:33:59;;;;;;;6.32;2.60;;;;;;;12.25;91.81;98250.44;8396687;28;20037;-81
2022/09/16 01:38:16;;;;;;;10.32;2.97;;;;;;;12.26;91.86;98256.66;8398265;28;20047;-80
2022/09/16 01:42:41;;;;;;;8.00;2.60;;;;;;;12.23;92.16;98266.22;8358536;28;20044;-81
2022/09/16 01:46:46;;;;;;;7.72;2.88;;;;;;;12.20;92.26;98261.50;8398251;28;20048;-79
2022/09/16 01:51:04;;;;;;;14.85;3.00;;;;;;;12.18;92.64;98250.22;8396168;28;20086;-82
2022/09/16 01:55:07;;;;;;;6.68;2.78;;;;;;;12.20;92.36;98253.38;8390823;28;20045;-82
2022/09/16 01:59:36;;;;;;;4.20;2.30;;;;;;;12.22;92.55;98256.53;8396796;28;20115;-83
2022/09/16 02:03:40;;;;;;;8.52;2.35;;;;;;;12.24;92.24;98254.28;8278002;28;20061;-80
2022/09/16 02:07:50;;;;;;;9.77;2.28;;;;;;;12.25;91.75;98255.84;8278668;28;20081;-80
2022/09/16 02:11:53;;;;;;;6.88;2.70;;;;;;;12.25;91.61;98250.44;8263924;28;20053;-81
2022/09/16 02:15:57;;;;;;;8.23;2.15;;;;;;;12.25;91.09;98245.03;8278388;28;20070;-79
2022/09/16 02:20:07;;;;;;;6.90;2.03;;;;;;;12.20;90.90;98247.97;8279122;28;20053;-80
2022/09/16 02:24:09;;;;;;;6.60;2.58;;;;;;;12.24;90.69;98256.97;8277732;28;20058;-80
2022/09/16 02:28:14;;;;;;;9.55;2.63;;;;;;;12.28;90.43;98243.53;8241697;28;20062;-80
2022/09/16 02:32:16;;;;;;;10.13;2.20;;;;;;;12.28;90.56;98255.16;8277713;28;20054;-81
2022/09/16 02:36:20;;;;;;;11.48;2.97;;;;;;;12.26;90.82;98257.44;8293737;28;20058;-81
2022/09/16 02:40:34;;;;;;;7.35;2.35;;;;;;;12.25;91.17;98261.28;8350090;28;20574;-81
2022/09/16 02:44:35;;;;;;;11.02;2.70;;;;;;;12.25;91.32;98263.97;8398921;28;20048;-81
2022/09/16 02:48:53;;;;;;;8.35;2.42;;;;;;;12.24;91.40;98262.38;8403818;28;20260;-81
2022/09/16 02:53:12;;;;;;;11.20;2.85;;;;;;;12.22;91.54;98261.94;8408530;28;20052;-81
2022/09/16 02:57:13;;;;;;;5.93;2.90;;;;;;;12.22;91.36;98259.22;8405721;28;20139;-82
2022/09/16 03:01:15;;;;;;;8.10;2.65;;;;;;;12.23;91.47;98258.09;8402755;28;20052;-82
2022/09/16 03:05:16;;;;;;;10.10;2.78;;;;;;;12.22;91.56;98261.94;8368690;28;20605;-80
2022/09/16 03:09:17;;;;;;;10.15;2.65;;;;;;;12.20;91.62;98253.38;8373657;28;20056;-80
2022/09/16 03:13:34;;;;;;;9.57;3.33;;;;;;;12.20;91.76;98258.78;8382368;28;20435;-81
2022/09/16 03:17:47;;;;;;;9.90;2.70;;;;;;;12.19;91.79;98257.22;8355513;28;20061;-85
2022/09/16 03:22:09;;;;;;;6.82;2.88;;;;;;;12.14;92.00;98254.72;8334316;28;20512;-82
2022/09/16 03:26:49;;;;;;;12.55;2.60;;;;;;;12.15;91.98;98256.31;8330025;28;20053;-80
2022/09/16 03:31:06;;;;;;;11.48;2.60;;;;;;;12.16;91.87;98251.69;8221898;28;20090;-81
2022/09/16 03:35:28;;;;;;;12.55;3.20;;;;;;;12.18;91.98;98266.44;8254207;28;20108;-80
2022/09/16 03:39:29;;;;;;;10.32;2.58;;;;;;;12.17;92.20;98259.44;8281498;28;20045;-81
2022/09/16 03:43:30;;;;;;;8.98;2.85;;;;;;;12.17;92.33;98270.28;8262141;28;20136;-81
2022/09/16 03:47:31;;;;;;;6.28;2.38;;;;;;;12.15;92.30;98261.72;8270723;28;20054;-81
2022/09/16 03:51:35;;;;;;;9.35;2.70;;;;;;;12.14;92.41;98276.38;8255242;28;20058;-80
2022/09/16 03:55:35;;;;;;;8.88;2.47;;;;;;;12.11;92.66;98265.44;8302606;28;20057;-81
2022/09/16 03:59:36;;;;;;;11.90;2.50;;;;;;;12.07;93.19;98265.31;8305226;28;20445;-81
2022/09/16 04:03:37;;;;;;;8.02;2.35;;;;;;;12.07;93.08;98261.81;8298643;28;20050;-80
2022/09/16 04:07:38;;;;;;;9.23;2.47;;;;;;;12.07;92.90;98265.31;8317376;28;20055;-81
2022/09/16 04:11:39;;;;;;;7.85;2.00;;;;;;;12.07;93.01;98268.03;8405178;28;20068;-79
2022/09/16 04:15:40;;;;;;;14.27;2.70;;;;;;;12.04;93.15;98266.00;8422901;28;20057;-81
2022/09/16 04:19:44;;;;;;;11.05;2.33;;;;;;;12.03;93.19;98259.00;8405772;28;20146;-81
2022/09/16 04:23:45;;;;;;;13.10;2.80;;;;;;;12.03;93.10;98259.00;8400416;28;20375;-83
2022/09/16 04:27:46;;;;;;;6.90;2.30;;;;;;;12.05;93.19;98256.78;8398330;28;20119;-82
2022/09/16 04:31:47;;;;;;;9.82;2.30;;;;;;;12.04;93.18;98265.22;8425633;28;20059;-82
2022/09/16 04:35:48;;;;;;;6.32;2.38;;;;;;;12.03;93.25;98269.03;8392814;28;20052;-81
2022/09/16 04:39:49;;;;;;;5.25;1.75;;;;;;;12.04;93.20;98271.44;8423981;28;20032;-81
2022/09/16 04:43:52;;;;;;;5.90;2.13;;;;;;;12.02;93.09;98262.84;8416751;28;20037;-82
2022/09/16 04:47:57;;;;;;;4.10;1.77;;;;;;;12.01;93.53;98263.97;8417042;28;20048;-83
2022/09/16 04:51:58;;;;;;;7.00;1.83;;;;;;;11.94;93.86;98266.47;8426589;28;20044;-83
2022/09/16 04:56:07;;;;;;;8.63;1.67;;;;;;;11.93;93.79;98275.69;8419277;28;20048;-81
2022/09/16 05:00:09;;;;;;;9.50;1.63;;;;;;;11.92;93.91;98263.28;8428074;28;20052;-82
2022/09/16 05:04:10;;;;;;;7.40;1.75;;;;;;;11.91;93.92;98267.13;8413556;28;20089;-84
2022/09/16 05:08:11;;;;;;;3.83;1.60;;;;;;;11.84;94.18;98277.72;8358205;28;20170;-83
2022/09/16 05:12:13;;;;;;;5.63;1.65;;;;;;;11.82;94.05;98282.69;8384537;28;20048;-83
2022/09/16 05:16:19;;;;;;;3.53;1.70;;;;;;;11.74;94.29;98278.13;8392045;28;20111;-81
2022/09/16 05:20:20;;;;;;;9.07;1.92;;;;;;;11.68;94.41;98274.88;8392534;28;20154;-82
2022/09/16 05:24:21;;;;;;;5.22;1.90;;;;;;;11.66;94.62;98270.91;8392090;28;20135;-81
2022/09/16 05:28:22;;;;;;;7.63;1.70;;;;;;;11.63;94.60;98266.19;8396206;28;20529;-81
2022/09/16 05:32:23;;;;;;;6.07;2.00;;;;;;;11.66;94.71;98276.31;8397109;28;20048;-80
2022/09/16 05:36:26;;;;;;;7.75;1.85;;;;;;;11.70;94.77;98271.78;8395872;28;20136;-82
2022/09/16 05:40:27;;;;;;;10.52;2.20;;;;;;;11.76;94.43;98270.50;8398425;28;20046;-82
2022/09/16 05:44:29;;;;;;;5.85;2.10;;;;;;;11.80;94.36;98277.59;8408697;28;21419;-82
2022/09/16 05:48:30;;;;;;;7.13;2.13;;;;;;;11.87;94.17;98287.88;8398748;28;20501;-81
2022/09/16 05:52:31;;;;;;;7.38;2.10;;;;;;;11.97;93.96;98276.59;8398960;28;20480;-82
2022/09/16 05:56:32;;;;;;;7.13;2.00;;;;;;;12.11;93.43;98277.03;8398555;28;20049;-81
2022/09/16 06:00:33;;;;;;;9.43;1.92;;;;;;;12.26;92.87;98283.72;8404418;28;20113;-82
2022/09/16 06:04:34;;;;;;;6.65;1.67;;;;;;;12.37;92.50;98273.22;8414763;28;20048;-82
2022/09/16 06:08:36;;;;;;;6.72;2.03;;;;;;;12.42;91.75;98281.09;8374612;28;20216;-80
2022/09/16 06:12:39;;;;;;;5.82;1.90;;;;;;;12.49;91.21;98275.88;8397676;28;20066;-81
2022/09/16 06:16:42;;;;;;;5.78;2.00;;;;;;;12.41;90.51;98280.31;8394224;28;20482;-81
2022/09/16 06:20:43;;;;;;;11.98;2.40;;;;;;;12.50;90.37;98272.06;8395818;28;20083;-82
2022/09/16 06:24:44;;;;;;;6.10;2.13;;;;;;;12.53;90.01;98265.97;8394087;28;20045;-83
2022/09/16 06:28:45;;;;;;;8.20;2.35;;;;;;;12.56;89.71;98270.69;8396612;28;20132;-83
2022/09/16 06:32:46;;;;;;;3.25;1.92;;;;;;;12.62;89.28;98263.91;8396148;28;20059;-81
2022/09/16 06:36:47;;;;;;;4.68;2.10;;;;;;;12.64;89.07;98264.34;8394070;28;20501;-82
2022/09/16 06:40:49;;;;;;;11.27;2.13;;;;;;;12.65;89.31;98269.44;8394012;28;20744;-83
2022/09/16 06:44:50;;;;;;;6.32;2.13;;;;;;;12.76;89.31;98275.16;8396280;28;20494;-81
2022/09/16 06:48:52;;;;;;;6.55;2.53;;;;;;;12.92;88.96;98273.31;8396400;28;20079;-81
2022/09/16 06:52:53;;;;;;;6.22;3.00;;;;;;;13.01;88.38;98271.25;8393721;28;20103;-82
2022/09/16 06:56:54;;;;;;;12.23;3.20;;;;;;;13.00;87.96;98280.53;8392706;28;20044;-82
2022/09/16 07:00:55;;;;;;;6.88;2.72;;;;;;;13.07;87.06;98280.72;8396434;28;20106;-81
2022/09/16 07:04:57;;;;;;;5.40;2.80;;;;;;;13.16;86.14;98277.91;8360701;28;20049;-80
2022/09/16 07:08:58;;;;;;;8.30;3.00;;;;;;;13.22;85.84;98276.50;8396075;28;20060;-82
2022/09/16 07:12:59;;;;;;;4.75;2.30;;;;;;;13.19;85.88;98281.81;8391094;28;20053;-82
2022/09/16 07:17:01;;;;;;;5.85;2.40;;;;;;;13.19;85.34;98287.25;8328295;28;20056;-82
2022/09/16 07:21:18;;;;;;;5.18;2.13;;;;;;;13.21;85.00;98282.28;8396096;28;20447;-82
2022/09/16 07:25:20;;;;;;;7.70;2.40;;;;;;;13.30;85.02;98288.34;8397308;28;20052;-83
2022/09/16 07:29:21;;;;;;;12.63;2.47;;;;;;;13.31;84.84;98295.34;8392726;28;20375;-84
2022/09/16 07:33:22;;;;;;;7.85;2.88;;;;;;;13.27;84.69;98294.47;8393740;28;20078;-83
2022/09/16 07:37:23;;;;;;;6.82;1.88;;;;;;;13.26;84.72;98292.88;8381601;28;20045;-84
2022/09/16 07:41:35;;;;;;;3.13;1.80;;;;;;;13.20;84.04;98292.34;8379278;28;20052;-84
2022/09/16 07:45:36;;;;;;;4.90;1.70;;;;;;;13.18;83.19;98291.09;8363860;28;20058;-86
2022/09/16 07:49:37;;;;;;;4.88;1.80;;;;;;;13.36;83.24;98286.94;8356010;28;20045;-82
2022/09/16 07:53:38;;;;;;;5.63;1.83;;;;;;;13.41;82.95;98289.41;8370250;28;20064;-83
2022/09/16 07:57:39;;;;;;;4.00;1.90;;;;;;;13.38;82.86;98284.66;8323538;28;20055;-82
2022/09/16 08:01:40;;;;;;;5.53;2.03;;;;;;;13.42;82.55;98285.56;8373978;28;20058;-82
2022/09/16 08:05:41;;;;;;;4.97;1.63;;;;;;;13.53;81.26;98297.50;8370189;28;20049;-83
2022/09/16 08:09:42;;;;;;;7.72;1.95;;;;;;;13.58;80.74;98304.59;8374340;28;20075;-84
2022/09/16 08:13:44;;;;;;;3.42;1.70;;;;;;;13.79;80.16;98303.22;8372742;28;20601;-82
2022/09/16 08:17:45;;;;;;;4.47;1.70;;;;;;;14.07;79.80;98305.03;8361183;28;20041;-85
2022/09/16 08:21:46;;;;;;;4.85;1.77;;;;;;;14.14;77.29;98300.59;8369036;28;20398;-84
2022/09/16 08:25:55;;;;;;;6.30;2.30;;;;;;;14.20;77.38;98293.75;8370063;28;20037;-83
2022/09/16 08:29:59;;;;;;;6.00;1.70;;;;;;;14.27;76.79;98293.16;8370187;28;20418;-86
2022/09/16 08:34:00;;;;;;;3.17;1.70;;;;;;;14.24;76.24;98289.19;8345367;28;20053;-85
2022/09/16 08:38:01;;;;;;;4.95;1.67;;;;;;;14.13;76.61;98298.22;8370537;28;21135;-82
2022/09/16 08:42:22;;;;;;;6.57;1.80;;;;;;;14.01;77.63;98295.63;8370641;28;20086;-83
2022/09/16 08:46:36;;;;;;;8.23;1.67;;;;;;;13.84;78.64;98302.97;8376190;28;20047;-85
2022/09/16 08:50:40;;;;;;;5.00;1.80;;;;;;;13.51;79.16;98311.41;8373753;28;20465;-82
2022/09/16 08:54:50;;;;;;;6.13;1.77;;;;;;;13.53;79.98;98311.81;8372381;28;20497;-83
2022/09/16 08:58:54;;;;;;;4.90;1.80;;;;;;;13.56;79.88;98315.78;8387952;28;20037;-83
2022/09/16 09:03:07;;;;;;;7.13;1.90;;;;;;;13.57;79.85;98306.50;8392340;28;20056;-84
2022/09/16 09:07:26;;;;;;;4.35;1.75;;;;;;;14.15;77.95;98301.38;8395107;28;20053;-84
2022/09/16 09:11:42;;;;;;;10.50;1.50;;;;;;;14.49;75.67;98300.66;8385405;28;20049;-83
2022/09/16 09:16:10;;;;;;;11.80;1.73;;;;;;;14.49;74.50;98299.91;8382169;28;20490;-85
2022/09/16 09:21:04;;;;;;;4.18;1.70;;;;;;;14.58;73.55;98309.44;8282796;28;20069;-84
2022/09/16 09:25:06;;;;;;;9.10;1.65;;;;;;;14.96;73.12;98297.03;8174120;28;20082;-84
2022/09/16 09:29:06;;;;;;;6.47;1.42;;;;;;;15.22;71.37;98299.91;8173580;29;20111;-86
2022/09/16 09:33:19;;;;;;;3.85;1.58;;;;;;;15.30;70.23;98301.63;8170133;29;20051;-83
2022/09/16 09:37:34;;;;;;;6.75;1.80;;;;;;;15.37;70.21;98290.09;8170588;29;20100;-84
2022/09/16 09:41:54;;;;;;;4.40;1.42;;;;;;;15.42;69.19;98293.31;8168935;29;20044;-84
2022/09/16 09:46:15;;;;;;;6.60;1.73;;;;;;;15.63;69.71;98282.06;8169413;29;20187;-84
2022/09/16 09:50:28;;;;;;;4.63;1.27;;;;;;;15.99;68.26;98272.56;8169954;29;20483;-81
2022/09/16 09:54:30;;;;;;;6.00;1.92;;;;;;;15.90;66.86;98280.19;8171370;28;20043;-86
2022/09/16 09:58:43;;;;;;;8.40;1.65;;;;;;;15.93;66.33;98268.56;8343338;28;20059;-86
2022/09/16 10:02:44;;;;;;;5.05;1.35;;;;;;;15.91;66.09;98270.88;8380540;28;20110;-83
2022/09/16 10:06:47;;;;;;;6.95;1.30;;;;;;;15.75;66.87;98267.50;8394979;28;20075;-86
2022/09/16 10:10:53;;;;;;;2.75;1.25;;;;;;;15.82;66.95;98278.50;8392732;28;20044;-84
2022/09/16 10:14:54;;;;;;;5.55;1.70;;;;;;;15.63;67.09;98282.06;8366467;28;20443;-85
2022/09/16 10:18:59;;;;;;;7.03;1.50;;;;;;;15.13;66.65;98285.72;8391008;28;20098;-86
2022/09/16 10:23:09;;;;;;;8.15;1.80;;;;;;;14.94;69.11;98277.56;8390206;28;20053;-83
2022/09/16 10:27:27;;;;;;;4.32;1.40;;;;;;;14.92;69.87;98290.72;8384291;28;20070;-83
2022/09/16 10:31:36;;;;;;;7.38;1.60;;;;;;;15.13;69.72;98280.28;8386582;28;20044;-84
2022/09/16 10:36:07;;;;;;;5.63;1.38;;;;;;;15.21;69.53;98292.88;8389460;28;20052;-85
2022/09/16 10:40:16;;;;;;;3.28;1.50;;;;;;;15.31;69.61;98286.09;8312799;28;20506;-84
2022/09/16 10:44:24;;;;;;;8.95;1.50;;;;;;;15.16;69.39;98279.59;8266077;28;20158;-81
2022/09/16 10:48:27;;;;;;;12.55;1.80;;;;;;;15.45;69.14;98289.84;8261990;28;20042;-83
2022/09/16 10:52:30;;;;;;;7.07;1.13;;;;;;;16.20;67.33;98277.56;8246693;28;20042;-84
2022/09/16 10:56:33;;;;;;;5.82;1.50;;;;;;;16.35;66.86;98274.69;8261941;28;20051;-83
2022/09/16 11:00:47;;;;;;;5.03;1.10;;;;;;;16.18;65.01;98275.19;8246348;28;20054;-82
2022/09/16 11:04:59;;;;;;;2.42;0.93;;;;;;;16.00;64.30;98274.13;8262720;28;20062;-85
2022/09/16 11:09:18;;;;;;;6.13;1.20;;;;;;;15.31;66.51;98269.75;8306548;28;20040;-85
2022/09/16 11:13:31;;;;;;;;;;;;;;;15.39;68.61;98269.53;8370285;28;20099;-84
2022/09/16 11:17:56;;;;;;;4.38;1.45;;;;;;;15.90;66.58;98258.41;8367712;28;20369;-87
2022/09/16 11:22:06;;;;;;;2.78;1.35;;;;;;;16.05;65.67;98254.75;8392060;28;20056;-83
2022/09/16 11:26:30;;;;;;;3.05;1.00;;;;;;;16.05;65.20;98265.66;8394297;28;20117;-86
2022/09/16 11:30:39;;;;;;;2.83;1.10;;;;;;;16.22;63.39;98254.25;8423748;28;20047;-83
2022/09/16 11:35:21;;;;;;;3.15;0.93;;;;;;;16.83;62.52;98255.91;8398703;28;20532;-86
2022/09/16 11:39:33;;;;;;;3.78;0.90;;;;;;;16.65;61.32;98241.28;8410376;28;20052;-84
2022/09/16 11:43:54;;;;;;;2.65;1.10;;;;;;;16.65;60.97;98233.09;8419837;28;20072;-87
2022/09/16 11:48:20;;;;;;;5.45;1.20;;;;;;;16.69;60.28;98228.47;8384458;28;20556;-84
2022/09/16 11:52:47;;;;;;;3.25;1.25;;;;;;;16.74;61.27;98239.06;8394844;28;20082;-84
2022/09/16 11:56:56;;;;;;;3.50;1.23;;;;;;;16.96;61.19;98242.84;8386965;28;20051;-85
2022/09/16 12:01:16;;;;;;;6.78;1.40;;;;;;;17.13;61.62;98237.56;8404479;28;20068;-86
2022/09/16 12:05:52;;;;;;;4.70;1.30;;;;;;;17.02;59.15;98242.16;8394896;28;20438;-85
2022/09/16 12:09:58;;;;;;;3.35;1.10;;;;;;;16.75;59.37;98248.81;8278680;28;20495;-82
2022/09/16 12:14:13;;;;;;;2.92;1.02;;;;;;;16.98;58.82;98235.84;8279371;28;20097;-85
2022/09/16 12:18:19;;;;;;;3.22;1.13;;;;;;;17.15;58.30;98235.25;8261901;28;20053;-86
2022/09/16 12:22:26;;;;;;;5.25;1.25;;;;;;;17.14;59.26;98230.97;8260094;28;20420;-87
2022/09/16 12:26:32;;;;;;;2.60;0.80;;;;;;;17.47;58.57;98234.81;8270131;28;20057;-86
2022/09/16 12:30:38;;;;;;;4.82;1.20;;;;;;;17.29;58.38;98229.16;8244832;28;20046;-83
2022/09/16 12:34:50;;;;;;;4.90;1.30;;;;;;;16.93;59.71;98233.44;8252137;28;20400;-83
2022/09/16 12:38:52;;;;;;;3.05;1.20;;;;;;;16.68;61.65;98248.69;8274532;28;20047;-83
2022/09/16 12:42:58;;;;;;;5.30;1.20;;;;;;;16.51;63.41;98232.84;8270385;28;20141;-84
2022/09/16 12:47:26;;;;;;;4.35;1.27;;;;;;;16.50;63.89;98231.31;8385062;28;20041;-84
2022/09/16 12:52:04;;;;;;;3.72;1.40;;;;;;;16.42;64.93;98224.97;8404607;28;20158;-83
2022/09/16 12:56:31;;;;;;;2.53;0.95;;;;;;;16.16;65.89;98223.03;8415534;28;20051;-83
2022/09/16 13:01:04;;;;;;;3.67;0.90;;;;;;;15.99;66.79;98218.09;8319672;28;20100;-84
2022/09/16 13:05:15;;;;;;;7.85;1.10;;;;;;;15.88;67.23;98206.25;8315737;28;20064;-83
2022/09/16 13:09:27;;;;;;;3.78;1.00;;;;;;;15.84;66.99;98211.66;8262398;28;20060;-82
2022/09/16 13:13:34;;;;;;;4.07;0.98;;;;;;;15.72;67.86;98208.31;8325883;28;20444;-82
2022/09/16 13:17:37;;;;;;;3.80;1.23;;;;;;;15.66;68.75;98220.66;8320244;28;20066;-83
2022/09/16 13:21:43;;;;;;;4.07;1.10;;;;;;;15.48;69.58;98225.78;8263371;28;20046;-83
2022/09/16 13:26:06;;;;;;;2.78;0.82;;;;;;;15.46;71.13;98217.97;8258953;28;20935;-82
2022/09/16 13:30:07;;;;;;;2.70;0.88;;;;;;;15.69;71.43;98209.06;8228827;28;20059;-84
2022/09/16 13:34:15;;;;;;;3.10;1.13;;;;;;;15.48;72.01;98215.69;8258660;28;20058;-82
2022/09/16 13:38:17;;;;;;;1.15;0.75;;;;;;;15.51;72.99;98209.53;8321740;28;20057;-83
2022/09/16 13:42:30;;;;;;;3.80;0.73;;;;;;;15.36;73.66;98218.56;8342123;28;20150;-83
2022/09/16 13:46:35;;;;;;;1.88;0.70;;;;;;;15.10;74.08;98237.50;8362487;28;20069;-83
2022/09/16 13:50:37;;;;;;;1.30;0.80;;;;;;;14.64;74.88;98248.22;8285758;28;20050;-86
2022/09/16 13:54:47;;;;;;;3.25;1.10;;;;;;;14.01;75.85;98246.75;8289708;28;20473;-85
2022/09/16 13:59:06;;;;;;;2.97;1.85;;;;;;;13.76;77.47;98233.34;8321283;28;20045;-82
2022/09/16 14:03:13;;;;;;;;;;;;;;;13.70;78.06;98210.31;8370607;28;20053;-82
2022/09/16 14:07:27;;;;;;;3.60;0.80;;;;;;;13.75;78.13;98196.50;8382372;28;19947;-83
2022/09/16 14:11:42;;;;;;;1.25;0.80;;;;;;;13.89;78.43;98202.28;8362969;28;20554;-82
2022/09/16 14:15:47;;;;;;;1.88;0.90;;;;;;;14.03;78.26;98201.03;8347454;28;20036;-82
2022/09/16 14:19:50;;;;;;;1.80;0.60;;;;;;;14.28;77.85;98196.94;8384666;28;20052;-82
2022/09/16 14:23:51;;;;;;;6.18;0.70;;;;;;;15.54;75.31;98197.94;8378889;28;20057;-83
2022/09/16 14:28:07;;;;;;;6.72;0.80;;;;;;;16.29;71.35;98188.97;8372211;28;20060;-85
2022/09/16 14:32:12;;;;;;;3.60;1.00;;;;;;;16.17;69.98;98181.03;8391989;28;20051;-82
2022/09/16 14:36:18;;;;;;;0.73;0.50;;;;;;;16.00;67.80;98187.00;8394109;28;20053;-83
2022/09/16 14:40:22;;;;;;;0.80;0.77;;;;;;;15.73;65.43;98193.56;8392877;28;20045;-84
2022/09/16 14:44:36;;;;;;;1.75;1.00;;;;;;;15.99;65.01;98185.41;8393847;28;20071;-87
2022/09/16 14:48:38;;;;;;;2.78;0.65;;;;;;;15.95;64.71;98179.13;8383022;28;20040;-83
2022/09/16 14:52:39;;;;;;;2.85;0.60;;;;;;;15.70;65.86;98180.69;8397325;28;20182;-84
2022/09/16 14:56:40;;;;;;;0.50;0.50;;;;;;;15.51;66.75;98176.88;8395695;28;20458;-84
2022/09/16 15:00:50;;;;;;;2.17;0.80;;;;;;;15.33;67.17;98181.22;8393236;28;20044;-88
2022/09/16 15:04:56;;;;;;;2.92;0.63;;;;;;;15.20;67.98;98168.91;8407616;28;20585;-83
2022/09/16 15:09:19;;;;;;;2.42;0.90;;;;;;;14.96;69.19;98167.34;8405606;28;20048;-83
2022/09/16 15:13:34;;;;;;;3.40;0.77;;;;;;;14.83;70.10;98173.25;8407462;28;20127;-84
2022/09/16 15:17:36;;;;;;;1.00;0.60;;;;;;;14.76;70.65;98174.69;8423224;28;20037;-85
2022/09/16 15:21:38;;;;;;;1.50;0.57;;;;;;;14.71;71.30;98166.84;8377848;28;20501;-85
2022/09/16 15:25:39;;;;;;;5.72;0.70;;;;;;;14.88;71.53;98164.81;8411248;28;20056;-83
2022/09/16 15:29:48;;;;;;;1.85;0.70;;;;;;;14.77;71.11;98170.84;8414986;28;20048;-86
2022/09/16 15:33:51;;;;;;;4.78;0.60;;;;;;;14.69;71.23;98163.72;8417614;28;20052;-83
2022/09/16 15:37:53;;;;;;;3.20;1.23;;;;;;;14.57;70.83;98161.13;8402221;28;20036;-82
2022/09/16 15:42:09;;;;;;;4.95;1.40;;;;;;;14.51;71.19;98157.13;8429615;28;20134;-84
2022/09/16 15:46:16;;;;;;;2.17;0.70;;;;;;;14.45;71.55;98147.66;8415160;28;20054;-83
2022/09/16 15:50:19;;;;;;;1.40;0.80;;;;;;;14.40;71.81;98145.25;8377179;28;20048;-84
2022/09/16 15:54:24;;;;;;;2.45;1.25;;;;;;;14.38;72.20;98152.97;8423556;28;20290;-84
2022/09/16 15:58:31;;;;;;;4.13;1.90;;;;;;;14.30;72.18;98162.06;8398013;28;20417;-82
2022/09/16 16:02:39;;;;;;;7.53;1.63;;;;;;;14.18;72.32;98154.03;8400254;28;20052;-84
2022/09/16 16:06:47;;;;;;;5.28;2.00;;;;;;;14.19;72.51;98155.63;8404728;28;20044;-83
2022/09/16 16:11:06;;;;;;;3.60;2.22;;;;;;;14.13;72.92;98148.88;8392312;28;20459;-83
2022/09/16 16:15:07;;;;;;;;;;;;;;;13.99;73.17;98145.88;8419751;28;20052;-83
2022/09/16 16:19:08;;;;;;;5.78;2.78;;;;;;;13.87;73.36;98144.84;8414202;28;19974;-83
2022/09/16 16:23:11;;;;;;;5.93;2.97;;;;;;;13.74;72.78;98139.88;8392050;28;20056;-86
2022/09/16 16:27:12;;;;;;;6.15;3.05;;;;;;;13.60;72.30;98145.75;8396104;28;20061;-85
2022/09/16 16:31:15;;;;;;;8.98;3.65;;;;;;;13.48;72.43;98149.34;8384597;28;20459;-84
2022/09/16 16:35:15;;;;;;;2.53;1.50;;;;;;;13.41;72.38;98148.38;8360696;28;20056;-85
2022/09/16 16:39:17;;;;;;;3.17;1.38;;;;;;;13.28;72.77;98155.81;8389739;28;20049;-83
2022/09/16 16:43:17;;;;;;;1.20;0.90;;;;;;;13.19;73.39;98167.97;8387992;28;20426;-83
2022/09/16 16:47:18;;;;;;;3.15;1.02;;;;;;;13.07;73.82;98166.88;8395520;28;20048;-84
2022/09/16 16:51:19;;;;;;;2.25;1.10;;;;;;;12.98;74.08;98152.69;8381544;28;20072;-82
2022/09/16 16:55:20;;;;;;;2.67;1.13;;;;;;;12.92;74.17;98159.50;8391910;28;20052;-82
2022/09/16 16:59:22;;;;;;;3.13;1.30;;;;;;;12.82;74.36;98165.41;8392905;28;20047;-88
2022/09/16 17:03:23;;;;;;;3.03;1.52;;;;;;;12.77;74.42;98162.97;8392857;28;20477;-84
2022/09/16 17:07:24;;;;;;;3.65;1.52;;;;;;;12.68;74.84;98170.44;8381252;28;20041;-82
2022/09/16 17:11:26;;;;;;;3.10;1.95;;;;;;;12.61;75.27;98181.06;8358786;28;20040;-83
2022/09/16 17:15:26;;;;;;;6.05;1.88;;;;;;;12.52;75.79;98183.16;8392243;28;20067;-82
2022/09/16 17:19:28;;;;;;;6.13;2.17;;;;;;;12.43;75.86;98185.19;8389081;28;20052;-83
2022/09/16 17:23:29;;;;;;;3.58;1.63;;;;;;;12.37;76.17;98183.88;8392372;28;20516;-82
2022/09/16 17:27:30;;;;;;;4.00;1.90;;;;;;;12.30;76.38;98191.78;8406987;28;20044;-82
2022/09/16 17:31:32;;;;;;;2.08;1.33;;;;;;;12.24;76.46;98177.69;8399726;28;20072;-83
2022/09/16 17:35:33;;;;;;;3.65;1.75;;;;;;;12.17;76.79;98183.66;8391909;28;20090;-82
2022/09/16 17:39:34;;;;;;;6.15;2.90;;;;;;;12.11;77.22;98182.31;8399123;28;20052;-81
2022/09/16 17:43:36;;;;;;;5.10;1.67;;;;;;;12.03;77.67;98185.94;8396913;28;20063;-81
2022/09/16 17:47:37;;;;;;;4.22;1.50;;;;;;;11.92;78.18;98182.13;8397107;28;20033;-82
2022/09/16 17:51:38;;;;;;;4.13;2.30;;;;;;;11.84;78.58;98185.75;8397678;28;20053;-81
2022/09/16 17:55:39;;;;;;;7.22;1.85;;;;;;;11.77;78.90;98189.00;8379393;28;20426;-81
2022/09/16 17:59:40;;;;;;;3.80;1.77;;;;;;;11.72;79.19;98191.13;8397655;28;20051;-80
2022/09/16 18:03:43;;;;;;;4.95;1.55;;;;;;;11.68;79.46;98192.94;8386233;28;20394;-81
2022/09/16 18:07:45;;;;;;;5.55;1.20;;;;;;;11.62;79.58;98188.88;8416744;28;20122;-81
2022/09/16 18:11:46;;;;;;;3.00;1.30;;;;;;;11.59;80.22;98184.13;8419126;28;20105;-81
2022/09/16 18:15:47;;;;;;;3.53;1.42;;;;;;;11.61;80.20;98190.00;8401828;28;20070;-81
2022/09/16 18:19:48;;;;;;;2.58;1.45;;;;;;;11.57;80.48;98186.38;8386962;28;20136;-81
2022/09/16 18:23:55;;;;;;;2.42;1.30;;;;;;;11.56;80.69;98190.22;8405943;28;20057;-82
2022/09/16 18:27:56;;;;;;;5.20;1.42;;;;;;;11.57;80.84;98186.38;8360686;28;20051;-81
2022/09/16 18:31:57;;;;;;;3.65;1.38;;;;;;;11.53;81.19;98185.47;8389540;28;20367;-81
2022/09/16 18:36:00;;;;;;;5.53;1.30;;;;;;;11.51;81.25;98193.13;8391294;28;20151;-82
2022/09/16 18:40:01;;;;;;;4.45;1.50;;;;;;;11.50;81.21;98180.72;8374749;28;20048;-83
2022/09/16 18:44:06;;;;;;;8.77;2.10;;;;;;;11.49;81.26;98188.06;8382726;28;20518;-82
2022/09/16 18:48:07;;;;;;;5.90;2.15;;;;;;;11.49;81.10;98192.66;8376273;28;20145;-85
2022/09/16 18:52:11;;;;;;;4.00;1.95;;;;;;;11.40;81.46;98198.97;8385852;28;20052;-82
2022/09/16 18:56:14;;;;;;;5.93;1.77;;;;;;;11.36;81.50;98195.38;8396279;28;20049;-80
2022/09/16 19:00:16;;;;;;;4.88;1.60;;;;;;;11.32;81.89;98191.75;8396171;28;20048;-81
2022/09/16 19:04:19;;;;;;;3.67;1.45;;;;;;;11.29;81.78;98197.84;8395473;28;20527;-81
2022/09/16 19:08:20;;;;;;;2.85;1.55;;;;;;;11.26;82.03;98201.19;8390730;28;20058;-81
2022/09/16 19:12:21;;;;;;;6.38;1.60;;;;;;;11.23;82.17;98193.75;8427235;28;20040;-80
2022/09/16 19:16:23;;;;;;;4.00;1.33;;;;;;;11.17;82.53;98205.91;8387681;28;20044;-80
2022/09/16 19:20:25;;;;;;;3.58;1.25;;;;;;;11.12;82.67;98198.00;8397423;28;20394;-81
2022/09/16 19:24:26;;;;;;;2.83;1.55;;;;;;;11.09;83.06;98193.28;8401526;28;20051;-80